Provident City, Texas
Current Conditions -  °F | °C
As of 12:55 PM on Tuesday 27 Jan 2015 (Local Time) from KARM Reporting Station
Clear Clear  
Wind Chill: 74°   Ceiling: Unl
Heat Index: 74°   Visibility: 10mi
Dew Point: 44°   Wind: 10mph
Humidity: 34%   Direction: 270°W
Pressure: 30.15"   Gusts: NA
Location:  29.1804°N, 96.4231°W
Report Text: KARM 271855Z AUTO 27009KT 10SM CLR 24/07 A3015 RMK AO2 T02350068
Loading
Personal Weather Stations






























Interactive Weather Map New forecast layout! Learn more

10-Day Weather Forecast

Advertisements
Track Severe Weather on mobile